createdAt,value
2023-04-18T00:02:09.284Z,15.57
2023-04-18T00:04:36.874Z,18.10
2023-04-18T00:07:04.144Z,17.02
2023-04-18T00:09:31.460Z,16.73
2023-04-18T00:11:58.737Z,18.08
2023-04-18T00:14:26.017Z,18.27
2023-04-18T00:16:54.324Z,17.83
2023-04-18T00:19:21.713Z,17.55
2023-04-18T00:21:49.677Z,18.67
2023-04-18T00:24:17.021Z,17.92
2023-04-18T00:26:44.188Z,20.20
2023-04-18T00:29:11.477Z,18.83
2023-04-18T00:31:38.696Z,21.15
2023-04-18T00:34:06.297Z,18.40
2023-04-18T00:36:33.494Z,17.00
2023-04-18T00:39:00.813Z,18.17
2023-04-18T00:41:28.439Z,17.47
2023-04-18T00:43:55.877Z,17.48
2023-04-18T00:46:23.294Z,17.90
2023-04-18T00:48:50.841Z,16.42
2023-04-18T00:51:18.079Z,18.27
2023-04-18T00:53:46.099Z,16.57
2023-04-18T00:56:13.367Z,16.73
2023-04-18T00:58:41.066Z,17.70
2023-04-18T01:01:09.343Z,18.05
2023-04-18T01:03:37.626Z,18.25
2023-04-18T01:06:05.020Z,18.27
2023-04-18T01:08:33.625Z,17.65
2023-04-18T01:11:00.786Z,17.75
2023-04-18T01:13:28.121Z,18.27
2023-04-18T01:15:56.300Z,16.88
2023-04-18T01:18:24.398Z,16.70
2023-04-18T01:20:52.270Z,16.20
2023-04-18T01:23:20.780Z,17.58
2023-04-18T01:25:49.423Z,18.30
2023-04-18T01:28:19.624Z,15.65
2023-04-18T01:30:47.015Z,16.47
2023-04-18T01:33:14.250Z,15.65
2023-04-18T01:35:41.597Z,17.20
2023-04-18T01:38:08.848Z,17.45
2023-04-18T01:40:36.167Z,17.85
2023-04-18T01:43:03.370Z,16.20
2023-04-18T01:45:30.641Z,20.58
2023-04-18T01:47:57.930Z,18.02
2023-04-18T01:50:25.423Z,17.92
2023-04-18T01:52:52.755Z,17.85
2023-04-18T01:55:20.053Z,20.13
2023-04-18T01:57:47.406Z,16.27
2023-04-18T02:00:14.991Z,18.95
2023-04-18T02:02:42.361Z,17.98
2023-04-18T02:05:09.713Z,17.45
2023-04-18T02:07:39.973Z,16.77
2023-04-18T02:10:08.732Z,16.20
2023-04-18T02:12:35.985Z,16.70
2023-04-18T02:15:03.634Z,17.38
2023-04-18T02:17:31.077Z,17.20
2023-04-18T02:19:58.425Z,20.03
2023-04-18T02:22:25.741Z,16.48
2023-04-18T02:24:53.505Z,17.65
2023-04-18T02:27:20.817Z,15.68
2023-04-18T02:29:48.222Z,16.40
2023-04-18T02:32:15.608Z,16.07
2023-04-18T02:34:45.009Z,17.08
2023-04-18T02:37:12.226Z,14.98
2023-04-18T02:39:40.716Z,16.40
2023-04-18T02:42:07.930Z,15.27
2023-04-18T02:44:35.170Z,18.53
2023-04-18T02:47:02.408Z,15.70
2023-04-18T02:49:30.272Z,14.68
2023-04-18T02:51:58.077Z,18.08
2023-04-18T02:54:25.408Z,16.00
2023-04-18T02:57:04.568Z,17.00
2023-04-18T02:59:40.726Z,14.70
2023-04-18T03:02:21.151Z,15.10
2023-04-18T03:04:54.133Z,15.45
2023-04-18T03:07:21.850Z,17.75
2023-04-18T03:09:50.991Z,15.47
2023-04-18T03:12:26.059Z,15.35
2023-04-18T03:14:53.677Z,17.52
2023-04-18T03:17:22.244Z,14.80
2023-04-18T03:19:50.360Z,15.93
2023-04-18T03:22:20.077Z,16.07
2023-04-18T03:24:56.297Z,15.10
2023-04-18T03:27:36.981Z,15.10
2023-04-18T03:30:05.187Z,16.02
2023-04-18T03:32:34.023Z,13.15
2023-04-18T03:35:01.466Z,13.70
2023-04-18T03:37:29.261Z,13.27
2023-04-18T03:39:57.338Z,13.63
2023-04-18T03:42:27.824Z,14.80
2023-04-18T03:44:55.183Z,13.70
2023-04-18T03:47:22.603Z,14.80
2023-04-18T03:49:55.717Z,13.93
2023-04-18T03:52:25.239Z,14.93
2023-04-18T03:54:52.477Z,14.82
2023-04-18T03:57:24.557Z,16.08
2023-04-18T03:59:52.393Z,15.17
2023-04-18T04:02:19.712Z,13.07
2023-04-18T04:04:47.302Z,13.35
2023-04-18T04:07:14.862Z,13.75
2023-04-18T04:09:42.724Z,13.43
2023-04-18T04:12:10.013Z,15.20
2023-04-18T04:14:37.464Z,13.18
2023-04-18T04:17:04.685Z,11.63
2023-04-18T04:19:32.299Z,12.48
2023-04-18T04:22:10.145Z,15.00
2023-04-18T04:24:39.135Z,11.80
2023-04-18T04:27:08.231Z,13.93
2023-04-18T04:29:39.371Z,11.45
2023-04-18T04:32:08.193Z,12.75
2023-04-18T04:34:38.325Z,13.15
2023-04-18T04:37:08.379Z,13.33
2023-04-18T04:39:42.048Z,11.93
2023-04-18T04:42:28.665Z,12.10
2023-04-18T04:45:03.896Z,12.25
2023-04-18T04:47:31.355Z,12.10
2023-04-18T04:49:59.143Z,12.60
2023-04-18T04:52:26.522Z,11.68
2023-04-18T04:54:53.816Z,12.82
2023-04-18T04:57:23.960Z,10.18
2023-04-18T04:59:51.910Z,10.75
2023-04-18T05:02:23.242Z,11.10
2023-04-18T05:04:51.148Z,10.93
2023-04-18T05:07:18.498Z,11.43
2023-04-18T05:09:46.029Z,11.40
2023-04-18T05:12:13.320Z,11.07
2023-04-18T05:14:40.720Z,10.60
2023-04-18T05:17:08.613Z,10.85
2023-04-18T05:19:36.202Z,11.65
2023-04-18T05:22:03.520Z,11.93
2023-04-18T05:24:32.848Z,12.85
2023-04-18T05:27:00.250Z,11.60
2023-04-18T05:29:27.846Z,11.15
2023-04-18T05:31:55.356Z,12.57
2023-04-18T05:34:22.697Z,11.60
2023-04-18T05:36:50.074Z,13.20
2023-04-18T05:39:20.256Z,14.00
2023-04-18T05:41:51.048Z,13.43
2023-04-18T05:44:18.922Z,13.10
2023-04-18T05:46:46.849Z,11.73
2023-04-18T05:49:14.798Z,12.05
2023-04-18T05:51:42.427Z,11.77
2023-04-18T05:54:09.877Z,12.35
2023-04-18T05:56:37.250Z,13.85
2023-04-18T05:59:05.167Z,12.48
2023-04-18T06:01:32.705Z,12.88
2023-04-18T06:04:00.795Z,11.05
2023-04-18T06:06:28.346Z,13.57
2023-04-18T06:08:58.182Z,11.45
2023-04-18T06:11:25.659Z,10.55
2023-04-18T06:13:55.970Z,12.98
2023-04-18T06:16:23.570Z,11.75
2023-04-18T06:18:50.934Z,10.10
2023-04-18T06:21:21.477Z,10.90
2023-04-18T06:23:49.167Z,9.73
2023-04-18T06:26:17.498Z,13.05
2023-04-18T06:28:45.096Z,9.63
2023-04-18T06:31:12.529Z,10.77
2023-04-18T06:33:39.940Z,11.80
2023-04-18T06:36:07.732Z,11.27
2023-04-18T06:38:35.179Z,10.95
2023-04-18T06:41:02.676Z,9.63
2023-04-18T06:43:30.183Z,10.10
2023-04-18T06:45:57.707Z,10.15
2023-04-18T06:48:25.642Z,10.27
2023-04-18T06:50:53.589Z,10.13
2023-04-18T06:53:21.632Z,11.35
2023-04-18T06:55:49.404Z,8.50
2023-04-18T06:58:17.455Z,11.95
2023-04-18T07:00:47.753Z,10.50
2023-04-18T07:03:15.461Z,11.32
2023-04-18T07:05:43.338Z,10.10
2023-04-18T07:08:11.425Z,9.77
2023-04-18T07:10:39.119Z,11.75
2023-04-18T07:13:13.419Z,10.53
2023-04-18T07:15:41.792Z,10.50
2023-04-18T07:18:09.320Z,9.90
2023-04-18T07:20:37.026Z,13.93
2023-04-18T07:23:05.140Z,11.35
2023-04-18T07:25:33.051Z,12.40
2023-04-18T07:28:00.739Z,10.88
2023-04-18T07:30:28.658Z,10.27
2023-04-18T07:32:56.158Z,11.23
2023-04-18T07:35:24.164Z,10.77
2023-04-18T07:37:54.116Z,10.40
2023-04-18T07:40:21.745Z,9.77
2023-04-18T07:42:49.634Z,9.07
2023-04-18T07:45:23.366Z,10.77
2023-04-18T07:47:51.713Z,10.13
2023-04-18T07:50:19.400Z,9.83
2023-04-18T07:52:56.242Z,9.50
2023-04-18T07:55:27.361Z,8.85
2023-04-18T07:57:55.377Z,10.18
2023-04-18T08:00:23.064Z,10.43
2023-04-18T08:02:50.725Z,10.90
2023-04-18T08:05:21.816Z,9.63
2023-04-18T08:07:49.473Z,8.98
2023-04-18T08:10:24.902Z,10.50
2023-04-18T08:12:52.541Z,9.85
2023-04-18T08:15:20.062Z,11.63
2023-04-18T08:17:49.413Z,9.57
2023-04-18T08:20:17.070Z,10.82
2023-04-18T08:23:02.380Z,10.95
2023-04-18T08:25:33.397Z,10.82
2023-04-18T08:28:01.000Z,11.52
2023-04-18T08:30:29.029Z,10.00
2023-04-18T08:32:56.486Z,8.88
2023-04-18T08:35:24.705Z,9.75
2023-04-18T08:37:52.177Z,11.88
2023-04-18T08:40:20.154Z,9.57
2023-04-18T08:42:48.020Z,11.33
2023-04-18T08:45:19.095Z,10.98
2023-04-18T08:47:46.874Z,10.13
2023-04-18T08:50:15.991Z,10.45
2023-04-18T08:52:49.469Z,10.23
2023-04-18T08:55:17.306Z,10.65
2023-04-18T08:57:45.349Z,10.52
2023-04-18T09:00:13.927Z,11.83
2023-04-18T09:02:45.354Z,10.55
2023-04-18T09:05:19.205Z,9.57
2023-04-18T09:07:51.873Z,11.35
2023-04-18T09:10:33.522Z,11.02
2023-04-18T09:13:03.777Z,10.40
2023-04-18T09:15:32.126Z,9.98
2023-04-18T09:18:03.332Z,11.48
2023-04-18T09:20:37.750Z,9.88
2023-04-18T09:23:18.134Z,11.55
2023-04-18T09:25:52.421Z,10.60
2023-04-18T09:28:30.649Z,12.17
2023-04-18T09:31:15.723Z,9.27
2023-04-18T09:33:54.152Z,10.82
2023-04-18T09:36:25.213Z,10.38
2023-04-18T09:38:56.027Z,9.68
2023-04-18T09:41:24.263Z,10.98
2023-04-18T09:44:07.949Z,10.17
2023-04-18T09:46:36.234Z,10.38
2023-04-18T09:49:03.850Z,9.85
2023-04-18T09:51:32.093Z,9.85
2023-04-18T09:54:00.869Z,8.48
2023-04-18T09:56:29.170Z,9.57
2023-04-18T09:58:57.472Z,9.77
2023-04-18T10:01:27.987Z,9.07
2023-04-18T10:03:56.803Z,11.30
2023-04-18T10:06:24.729Z,9.13
2023-04-18T10:08:52.760Z,10.65
2023-04-18T10:11:20.767Z,9.93
2023-04-18T10:13:48.758Z,9.88
2023-04-18T10:16:17.011Z,8.85
2023-04-18T10:18:44.456Z,8.32
2023-04-18T10:21:11.854Z,9.52
2023-04-18T10:23:39.644Z,8.43
2023-04-18T10:26:10.069Z,9.07
2023-04-18T10:28:53.673Z,9.02
2023-04-18T10:31:23.072Z,9.38
2023-04-18T10:34:05.378Z,8.25
2023-04-18T10:36:33.566Z,9.77
2023-04-18T10:39:23.561Z,7.95
2023-04-18T10:41:51.644Z,9.50
2023-04-18T10:44:23.199Z,8.15
2023-04-18T10:46:53.918Z,9.30
2023-04-18T10:49:26.876Z,8.87
2023-04-18T10:52:03.455Z,9.38
2023-04-18T10:54:51.405Z,9.55
2023-04-18T10:57:19.061Z,10.73
2023-04-18T10:59:51.139Z,10.70
2023-04-18T11:02:30.398Z,9.30
2023-04-18T11:05:14.312Z,9.10
2023-04-18T11:07:49.493Z,9.35
2023-04-18T11:10:23.202Z,9.38
2023-04-18T11:12:52.082Z,12.07
2023-04-18T11:15:23.713Z,10.25
2023-04-18T11:18:05.190Z,12.67
2023-04-18T11:20:39.936Z,9.10
2023-04-18T11:23:16.273Z,9.02
2023-04-18T11:25:45.172Z,10.40
2023-04-18T11:28:17.445Z,9.82
2023-04-18T11:30:46.156Z,9.27
2023-04-18T11:33:15.091Z,9.88
2023-04-18T11:35:46.494Z,11.10
2023-04-18T11:38:19.743Z,11.10
2023-04-18T11:40:48.717Z,10.95
2023-04-18T11:43:21.083Z,11.17
2023-04-18T11:45:58.660Z,12.57
2023-04-18T11:48:39.810Z,10.68
2023-04-18T11:51:07.724Z,11.70
2023-04-18T11:53:36.071Z,11.85
2023-04-18T11:56:04.668Z,13.17
2023-04-18T11:58:36.869Z,15.87
2023-04-18T12:01:20.767Z,11.52
2023-04-18T12:04:06.934Z,13.40
2023-04-18T12:06:51.126Z,13.95
2023-04-18T12:09:18.778Z,13.15
2023-04-18T12:12:00.177Z,12.73
2023-04-18T12:14:28.539Z,12.48
2023-04-18T12:16:56.674Z,11.68
2023-04-18T12:19:28.359Z,11.73
2023-04-18T12:21:58.574Z,14.65
2023-04-18T12:24:26.581Z,11.57
2023-04-18T12:26:53.885Z,12.80
2023-04-18T12:29:21.316Z,13.90
2023-04-18T12:31:48.668Z,14.80
2023-04-18T12:34:16.472Z,13.50
2023-04-18T12:36:43.999Z,15.18
2023-04-18T12:39:11.391Z,11.57
2023-04-18T12:41:38.688Z,12.93
2023-04-18T12:44:06.862Z,13.73
2023-04-18T12:46:34.223Z,14.52
2023-04-18T12:49:01.806Z,14.18
2023-04-18T12:51:29.179Z,12.17
2023-04-18T12:53:56.623Z,12.60
2023-04-18T12:56:23.912Z,12.20
2023-04-18T12:58:51.331Z,14.65
2023-04-18T13:01:18.684Z,16.15
2023-04-18T13:03:53.428Z,14.70
2023-04-18T13:06:27.806Z,14.57
2023-04-18T13:08:55.110Z,15.50
2023-04-18T13:11:22.653Z,11.73
2023-04-18T13:13:50.079Z,14.27
2023-04-18T13:16:17.348Z,11.07
2023-04-18T13:18:44.880Z,14.80
2023-04-18T13:21:12.318Z,11.80
2023-04-18T13:23:39.778Z,11.38
2023-04-18T13:26:08.654Z,11.93
2023-04-18T13:28:36.724Z,21.13
2023-04-18T13:31:04.160Z,11.63
2023-04-18T13:33:31.411Z,13.93
2023-04-18T13:35:58.979Z,13.02
2023-04-18T13:38:28.734Z,14.70
2023-04-18T13:41:10.873Z,14.82
2023-04-18T13:43:40.069Z,14.00
2023-04-18T13:46:07.375Z,13.07
2023-04-18T13:48:34.811Z,12.30
2023-04-18T13:51:02.719Z,15.07
2023-04-18T13:53:31.108Z,12.25
2023-04-18T13:55:59.185Z,16.30
2023-04-18T13:58:26.538Z,15.35
2023-04-18T14:00:54.057Z,13.80
2023-04-18T14:03:21.678Z,13.60
2023-04-18T14:05:49.117Z,16.73
2023-04-18T14:08:16.625Z,14.07
2023-04-18T14:10:44.308Z,14.75
2023-04-18T14:13:11.655Z,16.33
2023-04-18T14:15:39.173Z,16.60
2023-04-18T14:18:06.709Z,15.30
2023-04-18T14:20:36.797Z,15.63
2023-04-18T14:23:04.163Z,13.88
2023-04-18T14:25:31.442Z,14.73
2023-04-18T14:28:11.040Z,14.55
2023-04-18T14:30:39.384Z,13.68
2023-04-18T14:33:07.302Z,13.83
2023-04-18T14:35:34.778Z,13.98
2023-04-18T14:38:02.137Z,14.85
2023-04-18T14:40:32.583Z,13.32
2023-04-18T14:43:00.489Z,13.90
2023-04-18T14:45:27.983Z,12.23
2023-04-18T14:47:55.938Z,11.45
2023-04-18T14:50:23.335Z,11.23
2023-04-18T14:52:51.013Z,12.55
2023-04-18T14:55:20.130Z,11.05
2023-04-18T14:57:47.476Z,11.67
2023-04-18T15:00:15.600Z,11.25
2023-04-18T15:02:43.283Z,10.85
2023-04-18T15:05:11.420Z,11.18
2023-04-18T15:07:39.084Z,10.88
2023-04-18T15:10:07.207Z,11.50
2023-04-18T15:12:35.028Z,10.43
2023-04-18T15:15:02.380Z,10.10
2023-04-18T15:17:29.900Z,10.45
2023-04-18T15:19:58.765Z,10.10
2023-04-18T15:22:26.104Z,11.00
2023-04-18T15:24:53.305Z,13.52
2023-04-18T15:27:20.839Z,13.18
2023-04-18T15:29:48.177Z,13.73
2023-04-18T15:32:15.633Z,11.20
2023-04-18T15:34:44.284Z,12.97
2023-04-18T15:37:11.574Z,11.52
2023-04-18T15:39:39.250Z,11.88
2023-04-18T15:44:54.391Z,13.00
2023-04-18T15:47:21.726Z,11.97
2023-04-18T15:49:49.091Z,13.02
2023-04-18T15:52:16.748Z,11.60
2023-04-18T15:54:44.265Z,12.82
2023-04-18T15:57:11.561Z,14.02
2023-04-18T15:59:39.022Z,11.57
2023-04-18T16:02:07.231Z,13.02
2023-04-18T16:04:34.882Z,11.68
2023-04-18T16:07:03.128Z,12.40
2023-04-18T16:09:30.740Z,10.77
2023-04-18T16:11:58.038Z,11.50
2023-04-18T16:14:25.509Z,10.90
2023-04-18T16:16:55.104Z,10.20
2023-04-18T16:19:22.457Z,9.35
2023-04-18T16:21:49.923Z,9.90
2023-04-18T16:24:17.443Z,9.67
2023-04-18T16:26:44.932Z,10.05
2023-04-18T16:29:12.257Z,8.85
2023-04-18T16:31:43.459Z,9.52
2023-04-18T16:34:10.956Z,9.93
2023-04-18T16:36:38.348Z,8.97
2023-04-18T16:39:05.823Z,9.30
2023-04-18T16:41:33.528Z,9.48
2023-04-18T16:44:00.955Z,8.80
2023-04-18T16:46:31.432Z,10.05
2023-04-18T16:48:59.102Z,8.30
2023-04-18T16:51:26.981Z,9.15
2023-04-18T16:53:55.054Z,11.57
2023-04-18T16:56:22.429Z,8.75
2023-04-18T16:58:49.853Z,7.82
2023-04-18T17:01:17.103Z,9.90
2023-04-18T17:03:44.723Z,9.18
2023-04-18T17:06:12.125Z,8.23
2023-04-18T17:08:39.585Z,9.15
2023-04-18T17:11:06.966Z,9.52
2023-04-18T17:13:39.611Z,9.03
2023-04-18T17:16:07.492Z,9.00
2023-04-18T17:18:34.794Z,9.05
2023-04-18T17:21:02.227Z,8.02
2023-04-18T17:23:31.553Z,9.27
2023-04-18T17:26:00.319Z,9.50
2023-04-18T17:28:34.089Z,10.23
2023-04-18T17:31:02.100Z,8.90
2023-04-18T17:33:29.380Z,9.65
2023-04-18T17:35:56.849Z,10.23
2023-04-18T17:38:24.172Z,7.67
2023-04-18T17:41:00.857Z,9.25
2023-04-18T17:43:28.320Z,10.43
2023-04-18T17:45:56.005Z,8.23
2023-04-18T17:48:23.419Z,9.57
2023-04-18T17:50:50.804Z,9.60
2023-04-18T17:53:18.346Z,8.77
2023-04-18T17:55:48.884Z,10.57
2023-04-18T17:58:16.960Z,9.60
2023-04-18T18:00:44.298Z,10.05
2023-04-18T18:03:15.238Z,11.73
2023-04-18T18:05:45.469Z,9.65
2023-04-18T18:08:12.841Z,8.80
2023-04-18T18:10:40.489Z,9.68
2023-04-18T18:13:07.906Z,10.00
2023-04-18T18:15:35.677Z,9.67
2023-04-18T18:18:03.064Z,9.30
2023-04-18T18:20:30.853Z,9.55
2023-04-18T18:23:01.804Z,9.93
2023-04-18T18:25:29.206Z,9.30
2023-04-18T18:27:56.395Z,9.50
2023-04-18T18:30:23.862Z,9.20
2023-04-18T18:32:51.318Z,10.98
2023-04-18T18:35:18.767Z,10.65
2023-04-18T18:37:46.025Z,9.50
2023-04-18T18:40:13.473Z,7.97
2023-04-18T18:42:41.152Z,9.82
2023-04-18T18:45:09.288Z,8.55
2023-04-18T18:47:39.009Z,9.75
2023-04-18T18:50:07.677Z,10.55
2023-04-18T18:52:34.964Z,9.17
2023-04-18T18:55:03.342Z,8.27
2023-04-18T18:57:30.682Z,8.80
2023-04-18T18:59:58.030Z,9.18
2023-04-18T19:02:25.717Z,9.93
2023-04-18T19:04:53.463Z,9.50
2023-04-18T19:07:20.777Z,10.50
2023-04-18T19:09:48.105Z,10.00
2023-04-18T19:12:15.987Z,10.23
2023-04-18T19:14:43.199Z,9.95
2023-04-18T19:17:10.413Z,9.93
2023-04-18T19:19:37.717Z,10.45
2023-04-18T19:22:06.519Z,8.65
2023-04-18T19:24:34.921Z,10.23
2023-04-18T19:27:02.956Z,9.18
2023-04-18T19:29:32.750Z,9.30
2023-04-18T19:32:00.366Z,8.35
2023-04-18T19:34:27.681Z,7.55
2023-04-18T19:36:54.989Z,8.80
2023-04-18T19:39:22.244Z,9.40
2023-04-18T19:41:49.549Z,9.90
2023-04-18T19:44:16.769Z,9.55
2023-04-18T19:46:44.127Z,9.68
2023-04-18T19:49:11.425Z,9.05
2023-04-18T19:51:39.438Z,10.77
2023-04-18T19:54:06.752Z,8.20
2023-04-18T19:56:34.144Z,9.60
2023-04-18T19:59:01.748Z,9.80
2023-04-18T20:01:29.394Z,9.15
2023-04-18T20:04:00.141Z,10.57
2023-04-18T20:06:28.073Z,11.87
2023-04-18T20:08:55.436Z,10.30
2023-04-18T20:11:22.805Z,10.48
2023-04-18T20:13:52.160Z,11.40
2023-04-18T20:16:19.608Z,11.90
2023-04-18T20:18:47.512Z,12.80
2023-04-18T20:21:14.898Z,11.25
2023-04-18T20:23:42.840Z,12.60
2023-04-18T20:26:10.292Z,12.45
2023-04-18T20:28:37.995Z,11.95
2023-04-18T20:31:05.423Z,12.53
2023-04-18T20:33:32.950Z,13.95
2023-04-18T20:36:00.391Z,12.35
2023-04-18T20:38:29.813Z,12.68
2023-04-18T20:41:00.826Z,12.15
2023-04-18T20:43:28.275Z,11.37
2023-04-18T20:45:57.664Z,12.40
2023-04-18T20:48:25.134Z,13.05
2023-04-18T20:50:52.724Z,10.68
2023-04-18T20:53:26.198Z,9.55
2023-04-18T20:55:53.470Z,12.27
2023-04-18T20:58:20.825Z,12.15
2023-04-18T21:00:48.983Z,10.55
2023-04-18T21:03:16.941Z,11.95
2023-04-18T21:05:44.963Z,11.23
2023-04-18T21:08:12.275Z,12.37
2023-04-18T21:10:39.937Z,10.40
2023-04-18T21:13:07.263Z,11.45
2023-04-18T21:15:35.623Z,10.07
2023-04-18T21:18:03.032Z,9.02
2023-04-18T21:20:30.579Z,8.87
2023-04-18T21:22:57.807Z,11.20
2023-04-18T21:25:25.234Z,9.40
2023-04-18T21:27:52.569Z,8.65
2023-04-18T21:30:19.947Z,9.73
2023-04-18T21:32:49.299Z,11.40
2023-04-18T21:35:19.370Z,9.52
2023-04-18T21:37:47.505Z,11.38
2023-04-18T21:40:14.853Z,12.48
2023-04-18T21:42:42.209Z,10.60
2023-04-18T21:45:10.234Z,10.83
2023-04-18T21:47:38.272Z,10.15
2023-04-18T21:50:06.156Z,10.48
2023-04-18T21:52:33.618Z,9.80
2023-04-18T21:55:00.880Z,10.88
2023-04-18T21:57:28.128Z,10.20
2023-04-18T21:59:59.836Z,9.90
2023-04-18T22:02:27.466Z,10.88
2023-04-18T22:04:54.736Z,10.40
2023-04-18T22:07:24.672Z,10.90
2023-04-18T22:09:51.971Z,10.67
2023-04-18T22:12:19.394Z,9.63
2023-04-18T22:14:48.485Z,12.45
2023-04-18T22:17:15.928Z,12.65
2023-04-18T22:19:44.538Z,10.00
2023-04-18T22:22:12.201Z,10.93
2023-04-18T22:24:39.415Z,9.65
2023-04-18T22:27:06.896Z,11.50
2023-04-18T22:29:34.106Z,12.98
2023-04-18T22:32:01.406Z,11.27
2023-04-18T22:34:28.674Z,11.60
2023-04-18T22:36:55.959Z,9.73
2023-04-18T22:39:24.336Z,10.43
2023-04-18T22:41:51.566Z,12.50
2023-04-18T22:44:18.782Z,11.88
2023-04-18T22:46:48.126Z,12.20
2023-04-18T22:49:15.649Z,12.80
2023-04-18T22:51:44.074Z,12.25
2023-04-18T22:54:11.387Z,10.57
2023-04-18T22:56:38.621Z,13.63
2023-04-18T22:59:05.872Z,12.97
2023-04-18T23:01:33.197Z,10.60
2023-04-18T23:04:00.638Z,11.50
2023-04-18T23:06:28.438Z,12.68
2023-04-18T23:08:55.891Z,12.63
2023-04-18T23:11:23.174Z,11.93
2023-04-18T23:13:50.458Z,13.20
2023-04-18T23:16:17.930Z,12.57
2023-04-18T23:18:45.141Z,12.05
2023-04-18T23:21:12.524Z,12.45
2023-04-18T23:23:39.725Z,12.10
2023-04-18T23:26:14.334Z,11.70
2023-04-18T23:28:42.374Z,11.68
2023-04-18T23:31:09.822Z,11.38
2023-04-18T23:33:37.542Z,11.80
2023-04-18T23:36:04.903Z,11.80
2023-04-18T23:38:32.485Z,11.45
2023-04-18T23:40:59.685Z,10.98
2023-04-18T23:43:27.051Z,14.63
2023-04-18T23:45:54.301Z,12.60
2023-04-18T23:48:21.620Z,14.60
2023-04-18T23:50:50.183Z,12.02
2023-04-18T23:53:17.609Z,14.02
2023-04-18T23:55:46.171Z,11.45
2023-04-18T23:58:14.108Z,10.82
